createdAt,value
2023-12-02T00:00:26.973Z,12.22
2023-12-02T00:02:53.885Z,12.20
2023-12-02T00:05:20.783Z,12.19
2023-12-02T00:07:47.550Z,12.20
2023-12-02T00:10:14.524Z,12.20
2023-12-02T00:12:41.353Z,12.21
2023-12-02T00:15:08.622Z,12.20
2023-12-02T00:17:35.646Z,12.18
2023-12-02T00:20:03.971Z,12.17
2023-12-02T00:22:30.930Z,12.16
2023-12-02T00:24:57.810Z,12.16
2023-12-02T00:27:24.565Z,12.13
2023-12-02T00:29:51.335Z,12.13
2023-12-02T00:32:28.233Z,12.13
2023-12-02T00:34:58.132Z,12.13
2023-12-02T00:37:25.452Z,12.13
2023-12-02T00:39:52.294Z,12.12
2023-12-02T00:42:19.185Z,12.13
2023-12-02T00:44:46.083Z,12.13
2023-12-02T00:47:12.919Z,12.12
2023-12-02T00:49:39.675Z,12.11
2023-12-02T00:52:06.795Z,12.10
2023-12-02T00:54:35.518Z,12.09
2023-12-02T00:57:02.902Z,12.09
2023-12-02T00:59:29.955Z,12.09
2023-12-02T01:01:56.746Z,12.08
2023-12-02T01:04:23.744Z,12.06
2023-12-02T01:06:50.742Z,12.05
2023-12-02T01:09:17.599Z,12.05
2023-12-02T01:11:44.303Z,12.04
2023-12-02T01:14:11.116Z,12.04
2023-12-02T01:16:37.861Z,12.04
2023-12-02T01:19:04.713Z,12.04
2023-12-02T01:21:31.567Z,12.06
2023-12-02T01:23:58.890Z,12.07
2023-12-02T01:26:25.945Z,12.07
2023-12-02T01:28:52.648Z,12.08
2023-12-02T01:31:19.483Z,12.08
2023-12-02T01:33:46.362Z,12.08
2023-12-02T01:36:14.764Z,12.08
2023-12-02T01:38:41.879Z,12.09
2023-12-02T01:41:10.167Z,12.10
2023-12-02T01:43:39.314Z,12.11
2023-12-02T01:46:07.060Z,12.13
2023-12-02T01:48:36.922Z,12.14
2023-12-02T01:51:05.718Z,12.15
2023-12-02T01:53:32.746Z,12.15
2023-12-02T01:55:59.888Z,12.15
2023-12-02T01:58:27.188Z,12.15
2023-12-02T02:00:53.959Z,12.16
2023-12-02T02:03:20.836Z,12.17
2023-12-02T02:05:47.790Z,12.18
2023-12-02T02:08:14.639Z,12.19
2023-12-02T02:10:41.502Z,12.21
2023-12-02T02:13:08.293Z,12.21
2023-12-02T02:15:35.201Z,12.22
2023-12-02T02:18:02.234Z,12.23
2023-12-02T02:20:29.541Z,12.23
2023-12-02T02:22:56.361Z,12.24
2023-12-02T02:25:23.077Z,12.26
2023-12-02T02:27:49.828Z,12.27
2023-12-02T02:30:16.731Z,12.27
2023-12-02T02:32:43.671Z,12.28
2023-12-02T02:35:10.491Z,12.27
2023-12-02T02:37:37.208Z,12.29
2023-12-02T02:40:04.510Z,12.30
2023-12-02T02:42:32.031Z,12.31
2023-12-02T02:44:58.842Z,12.32
2023-12-02T02:47:25.837Z,12.33
2023-12-02T02:49:52.654Z,12.35
2023-12-02T02:52:19.357Z,12.36
2023-12-02T02:54:46.062Z,12.37
2023-12-02T02:57:12.877Z,12.36
2023-12-02T02:59:39.667Z,12.35
2023-12-02T03:02:06.449Z,12.34
2023-12-02T03:04:33.299Z,12.32
2023-12-02T03:07:00.625Z,12.30
2023-12-02T03:09:27.520Z,12.30
2023-12-02T03:11:54.454Z,12.28
2023-12-02T03:14:21.418Z,12.27
2023-12-02T03:16:48.223Z,12.28
2023-12-02T03:19:16.017Z,12.28
2023-12-02T03:21:42.892Z,12.27
2023-12-02T03:24:09.658Z,12.28
2023-12-02T03:26:38.083Z,12.28
2023-12-02T03:29:05.693Z,12.28
2023-12-02T03:31:32.643Z,12.28
2023-12-02T03:34:00.331Z,12.28
2023-12-02T03:36:27.244Z,12.26
2023-12-02T03:38:54.034Z,12.26
2023-12-02T03:41:20.757Z,12.27
2023-12-02T03:43:55.181Z,12.27
2023-12-02T03:46:28.968Z,12.25
2023-12-02T03:48:56.666Z,12.24
2023-12-02T03:51:23.643Z,12.22
2023-12-02T03:53:50.500Z,12.20
2023-12-02T03:56:17.355Z,12.20
2023-12-02T03:58:44.092Z,12.19
2023-12-02T04:01:10.811Z,12.20
2023-12-02T04:03:37.747Z,12.20
2023-12-02T04:06:04.885Z,12.20
2023-12-02T04:08:32.183Z,12.22
2023-12-02T04:10:59.066Z,12.23
2023-12-02T04:13:26.389Z,12.24
2023-12-02T04:15:53.262Z,12.25
2023-12-02T04:18:20.279Z,12.26
2023-12-02T04:23:15.349Z,12.23
2023-12-02T04:25:42.432Z,12.21
2023-12-02T04:28:09.216Z,12.18
2023-12-02T04:30:36.643Z,12.16
2023-12-02T04:33:05.401Z,12.13
2023-12-02T04:35:35.526Z,12.12
2023-12-02T04:38:02.342Z,12.12
2023-12-02T04:40:29.088Z,12.12
2023-12-02T04:42:56.221Z,12.14
2023-12-02T04:45:22.968Z,12.15
2023-12-02T04:47:50.026Z,12.15
2023-12-02T04:50:16.758Z,12.16
2023-12-02T04:52:43.610Z,12.16
2023-12-02T04:55:11.000Z,12.15
2023-12-02T04:57:37.865Z,12.14
2023-12-02T05:00:15.210Z,12.12
2023-12-02T05:02:43.267Z,12.10
2023-12-02T05:05:16.379Z,12.05
2023-12-02T05:07:43.257Z,12.00
2023-12-02T05:10:11.372Z,11.97
2023-12-02T05:12:38.695Z,11.94
2023-12-02T05:15:06.391Z,11.90
2023-12-02T05:17:34.025Z,11.87
2023-12-02T05:20:01.147Z,11.84
2023-12-02T05:22:27.876Z,11.82
2023-12-02T05:24:54.642Z,11.81
2023-12-02T05:27:21.506Z,11.81
2023-12-02T05:29:48.347Z,11.81
2023-12-02T05:32:15.145Z,11.81
2023-12-02T05:34:42.142Z,11.79
2023-12-02T05:37:09.055Z,11.80
2023-12-02T05:39:36.723Z,11.80
2023-12-02T05:42:03.745Z,11.79
2023-12-02T05:44:30.604Z,11.79
2023-12-02T05:46:57.535Z,11.78
2023-12-02T05:49:24.507Z,11.77
2023-12-02T05:51:51.585Z,11.77
2023-12-02T05:54:18.928Z,11.76
2023-12-02T05:56:45.862Z,11.76
2023-12-02T05:59:12.594Z,11.75
2023-12-02T06:01:39.440Z,11.73
2023-12-02T06:04:07.506Z,11.71
2023-12-02T06:06:34.414Z,11.70
2023-12-02T06:09:01.987Z,11.68
2023-12-02T06:11:28.973Z,11.68
2023-12-02T06:13:55.906Z,11.68
2023-12-02T06:16:22.672Z,11.70
2023-12-02T06:18:49.656Z,11.71
2023-12-02T06:21:16.621Z,11.72
2023-12-02T06:23:43.444Z,11.73
2023-12-02T06:26:10.539Z,11.72
2023-12-02T06:28:37.492Z,11.70
2023-12-02T06:31:04.464Z,11.68
2023-12-02T06:33:31.285Z,11.65
2023-12-02T06:35:58.182Z,11.65
2023-12-02T06:38:24.945Z,11.63
2023-12-02T06:40:51.895Z,11.62
2023-12-02T06:43:18.655Z,11.62
2023-12-02T06:45:45.544Z,11.62
2023-12-02T06:48:12.396Z,11.60
2023-12-02T06:50:39.533Z,11.58
2023-12-02T06:53:07.262Z,11.55
2023-12-02T06:55:34.166Z,11.54
2023-12-02T06:58:00.989Z,11.54
2023-12-02T07:00:27.833Z,11.56
2023-12-02T07:02:54.856Z,11.59
2023-12-02T07:05:21.593Z,11.60
2023-12-02T07:07:48.410Z,11.61
2023-12-02T07:10:15.503Z,11.62
2023-12-02T07:12:42.845Z,11.64
2023-12-02T07:15:10.208Z,11.66
2023-12-02T07:17:37.369Z,11.65
2023-12-02T07:20:04.888Z,11.62
2023-12-02T07:22:31.812Z,11.53
2023-12-02T07:24:59.072Z,11.43
2023-12-02T07:27:28.972Z,11.38
2023-12-02T07:32:26.566Z,11.35
2023-12-02T07:34:53.498Z,11.37
2023-12-02T07:37:20.242Z,11.40
2023-12-02T07:39:47.106Z,11.38
2023-12-02T07:42:13.921Z,11.35
2023-12-02T07:44:40.805Z,11.37
2023-12-02T07:47:07.949Z,11.43
2023-12-02T07:49:34.841Z,11.46
2023-12-02T07:52:01.656Z,11.49
2023-12-02T07:54:28.578Z,11.54
2023-12-02T07:56:55.423Z,11.57
2023-12-02T07:59:22.483Z,11.60
2023-12-02T08:01:49.381Z,11.65
2023-12-02T08:04:16.269Z,11.69
2023-12-02T08:06:43.027Z,11.78
2023-12-02T08:09:09.852Z,11.88
2023-12-02T08:11:36.722Z,11.98
2023-12-02T08:14:03.496Z,12.08
2023-12-02T08:16:30.278Z,12.17
2023-12-02T08:18:57.113Z,12.24
2023-12-02T08:21:23.842Z,12.31
2023-12-02T08:23:50.970Z,12.39
2023-12-02T08:26:17.837Z,12.52
2023-12-02T08:28:47.616Z,12.66
2023-12-02T08:31:14.587Z,12.82
2023-12-02T08:33:41.762Z,12.95
2023-12-02T08:36:09.275Z,13.05
2023-12-02T08:38:37.425Z,13.10
2023-12-02T08:41:04.857Z,13.13
2023-12-02T08:43:32.216Z,13.17
2023-12-02T08:45:59.044Z,13.19
2023-12-02T08:48:26.085Z,13.19
2023-12-02T08:50:53.175Z,13.18
2023-12-02T08:53:20.178Z,13.21
2023-12-02T08:55:46.970Z,13.23
2023-12-02T08:58:13.735Z,13.28
2023-12-02T09:00:40.460Z,13.32
2023-12-02T09:03:07.268Z,13.36
2023-12-02T09:05:34.249Z,13.38
2023-12-02T09:08:02.772Z,13.40
2023-12-02T09:10:30.288Z,13.41
2023-12-02T09:12:57.136Z,13.43
2023-12-02T09:15:23.830Z,13.45
2023-12-02T09:18:09.289Z,13.49
2023-12-02T09:20:48.651Z,13.54
2023-12-02T09:23:18.317Z,13.57
2023-12-02T09:25:47.166Z,13.60
2023-12-02T09:28:18.037Z,13.63
2023-12-02T09:31:09.881Z,13.65
2023-12-02T09:33:40.541Z,13.69
2023-12-02T09:36:09.153Z,13.70
2023-12-02T09:38:36.067Z,13.71
2023-12-02T09:41:45.424Z,13.74
2023-12-02T09:44:21.828Z,13.74
2023-12-02T09:47:07.586Z,13.73
2023-12-02T09:50:06.840Z,13.72
2023-12-02T09:52:36.688Z,13.74
2023-12-02T09:55:15.702Z,13.73
2023-12-02T09:57:56.496Z,13.65
2023-12-02T10:00:34.908Z,13.59
2023-12-02T10:03:37.243Z,13.54
2023-12-02T10:06:15.300Z,13.50
2023-12-02T10:09:20.780Z,13.48
2023-12-02T10:12:23.684Z,13.47
2023-12-02T10:15:00.574Z,13.52
2023-12-02T10:17:32.247Z,13.56
2023-12-02T10:20:10.935Z,13.64
2023-12-02T10:22:46.262Z,13.74
2023-12-02T10:25:34.760Z,13.85
2023-12-02T10:28:29.782Z,13.96
2023-12-02T10:31:04.935Z,14.04
2023-12-02T10:33:53.554Z,14.07
2023-12-02T10:36:21.911Z,14.08
2023-12-02T10:39:14.436Z,14.09
2023-12-02T10:42:02.160Z,14.10
2023-12-02T10:44:33.031Z,14.10
2023-12-02T10:47:06.231Z,14.11
2023-12-02T10:49:34.455Z,14.10
2023-12-02T10:54:37.979Z,14.03
2023-12-02T10:57:08.001Z,14.00
2023-12-02T10:59:42.010Z,13.97
2023-12-02T11:02:40.955Z,13.93
2023-12-02T11:05:10.394Z,13.87
2023-12-02T11:07:44.298Z,13.81
2023-12-02T11:10:18.716Z,13.75
2023-12-02T11:12:52.310Z,13.72
2023-12-02T11:15:23.988Z,13.71
2023-12-02T11:18:06.479Z,13.68
2023-12-02T11:20:59.102Z,13.67
2023-12-02T11:23:47.661Z,13.68
2023-12-02T11:26:23.697Z,13.71
2023-12-02T11:29:18.724Z,13.75
2023-12-02T11:31:48.751Z,13.78
2023-12-02T11:34:41.592Z,13.77
2023-12-02T11:37:42.768Z,13.70
2023-12-02T11:40:54.645Z,13.61
2023-12-02T11:43:53.903Z,13.47
2023-12-02T11:46:26.895Z,13.32
2023-12-02T11:49:09.001Z,13.20
2023-12-02T11:52:00.929Z,13.15
2023-12-02T11:55:04.243Z,13.14
2023-12-02T11:57:39.973Z,13.11
2023-12-02T12:00:14.162Z,13.06
2023-12-02T12:03:22.182Z,12.99
2023-12-02T12:06:18.490Z,12.93
2023-12-02T12:09:24.508Z,12.82
2023-12-02T12:11:53.129Z,12.68
2023-12-02T12:14:23.443Z,12.63
2023-12-02T12:16:51.233Z,12.57
2023-12-02T12:19:18.113Z,12.54
2023-12-02T12:21:45.610Z,12.51
2023-12-02T12:24:12.435Z,12.46
2023-12-02T12:26:39.233Z,12.43
2023-12-02T12:29:05.983Z,12.39
2023-12-02T12:31:35.693Z,12.34
2023-12-02T12:34:05.285Z,12.24
2023-12-02T12:36:32.773Z,12.16
2023-12-02T12:39:01.037Z,12.08
2023-12-02T12:41:28.525Z,11.97
2023-12-02T12:43:55.478Z,11.91
2023-12-02T12:46:27.396Z,11.87
2023-12-02T12:48:54.786Z,11.86
2023-12-02T12:51:23.697Z,11.83
2023-12-02T12:54:00.775Z,11.82
2023-12-02T12:56:44.928Z,11.83
2023-12-02T12:59:14.951Z,11.83
2023-12-02T13:02:07.978Z,11.85
2023-12-02T13:04:49.732Z,11.85
2023-12-02T13:07:17.929Z,11.80
2023-12-02T13:09:50.131Z,11.75
2023-12-02T13:12:23.069Z,11.70
2023-12-02T13:15:03.766Z,11.70
2023-12-02T13:17:34.013Z,11.70
2023-12-02T13:20:03.786Z,11.71
2023-12-02T13:22:32.249Z,11.73
2023-12-02T13:25:11.677Z,11.75
2023-12-02T13:27:43.031Z,11.74
2023-12-02T13:30:11.326Z,11.69
2023-12-02T13:32:43.554Z,11.65
2023-12-02T13:35:15.612Z,11.61
2023-12-02T13:38:05.534Z,11.55
2023-12-02T13:40:43.284Z,11.47
2023-12-02T13:43:13.253Z,11.45
2023-12-02T13:45:41.680Z,11.43
2023-12-02T13:48:22.885Z,11.44
2023-12-02T13:50:58.783Z,11.42
2023-12-02T13:53:48.702Z,11.40
2023-12-02T13:56:29.189Z,11.32
2023-12-02T13:59:13.870Z,11.30
2023-12-02T14:01:55.154Z,11.32
2023-12-02T14:04:59.757Z,11.33
2023-12-02T14:07:29.160Z,11.34
2023-12-02T14:09:57.027Z,11.32
2023-12-02T14:12:42.381Z,11.28
2023-12-02T14:15:18.472Z,11.20
2023-12-02T14:18:10.249Z,11.10
2023-12-02T14:21:18.047Z,11.00
2023-12-02T14:24:00.058Z,10.92
2023-12-02T14:26:29.789Z,10.86
2023-12-02T14:29:12.653Z,10.79
2023-12-02T14:31:54.035Z,10.74
2023-12-02T14:34:40.369Z,10.72
2023-12-02T14:37:25.866Z,10.73
2023-12-02T14:39:58.274Z,10.75
2023-12-02T14:42:39.054Z,10.77
2023-12-02T14:45:09.884Z,10.81
2023-12-02T14:47:40.935Z,10.85
2023-12-02T14:50:09.521Z,10.87
2023-12-02T14:52:42.785Z,10.88
2023-12-02T14:55:12.221Z,10.90
2023-12-02T14:57:39.074Z,10.94
2023-12-02T15:00:14.011Z,10.95
2023-12-02T15:02:43.916Z,10.95
2023-12-02T15:05:12.156Z,10.91
2023-12-02T15:07:46.073Z,10.89
2023-12-02T15:10:25.098Z,10.89
2023-12-02T15:13:00.827Z,10.89
2023-12-02T15:15:43.115Z,10.93
2023-12-02T15:18:17.129Z,10.95
2023-12-02T15:21:02.419Z,10.86
2023-12-02T15:23:32.321Z,10.77
2023-12-02T15:26:00.579Z,10.71
2023-12-02T15:28:27.475Z,10.69
2023-12-02T15:30:54.699Z,10.66
2023-12-02T15:33:40.678Z,10.59
2023-12-02T15:36:08.583Z,10.59
2023-12-02T15:38:35.475Z,10.61
2023-12-02T15:41:03.002Z,10.62
2023-12-02T15:43:29.798Z,10.61
2023-12-02T15:45:56.601Z,10.57
2023-12-02T15:48:23.540Z,10.51
2023-12-02T15:50:50.356Z,10.44
2023-12-02T15:53:17.705Z,10.38
2023-12-02T15:55:45.412Z,10.37
2023-12-02T15:58:12.495Z,10.39
2023-12-02T16:00:41.124Z,10.40
2023-12-02T16:03:11.363Z,10.41
2023-12-02T16:05:38.158Z,10.41
2023-12-02T16:08:08.202Z,10.40
2023-12-02T16:10:35.360Z,10.38
2023-12-02T16:13:02.594Z,10.38
2023-12-02T16:15:30.497Z,10.39
2023-12-02T16:17:58.878Z,10.41
2023-12-02T16:20:25.970Z,10.43
2023-12-02T16:22:53.118Z,10.40
2023-12-02T16:25:20.840Z,10.36
2023-12-02T16:27:51.793Z,10.35
2023-12-02T16:30:22.767Z,10.34
2023-12-02T16:32:51.927Z,10.32
2023-12-02T16:35:19.041Z,10.30
2023-12-02T16:37:46.759Z,10.28
2023-12-02T16:40:13.661Z,10.28
2023-12-02T16:42:40.703Z,10.27
2023-12-02T16:45:22.319Z,10.27
2023-12-02T16:47:52.229Z,10.26
2023-12-02T16:50:24.630Z,10.23
2023-12-02T16:53:03.571Z,10.16
2023-12-02T16:55:34.053Z,10.09
2023-12-02T16:58:04.283Z,10.03
2023-12-02T17:00:55.440Z,9.97
2023-12-02T17:03:36.826Z,9.88
2023-12-02T17:06:07.886Z,9.70
2023-12-02T17:08:35.960Z,9.53
2023-12-02T17:11:05.536Z,9.47
2023-12-02T17:13:49.008Z,9.39
2023-12-02T17:16:31.012Z,9.34
2023-12-02T17:18:58.174Z,9.35
2023-12-02T17:21:37.657Z,9.33
2023-12-02T17:24:09.186Z,9.32
2023-12-02T17:26:36.140Z,9.31
2023-12-02T17:29:03.130Z,9.22
2023-12-02T17:31:29.848Z,9.15
2023-12-02T17:33:56.774Z,9.06
2023-12-02T17:36:23.560Z,8.92
2023-12-02T17:38:50.265Z,8.80
2023-12-02T17:41:16.937Z,8.77
2023-12-02T17:43:43.688Z,8.70
2023-12-02T17:46:10.426Z,8.64
2023-12-02T17:48:37.860Z,8.57
2023-12-02T17:51:06.001Z,8.48
2023-12-02T17:53:33.227Z,8.42
2023-12-02T17:56:00.207Z,8.42
2023-12-02T17:58:28.106Z,8.46
2023-12-02T18:00:54.905Z,8.49
2023-12-02T18:03:22.346Z,8.49
2023-12-02T18:05:49.132Z,8.44
2023-12-02T18:08:15.995Z,8.42
2023-12-02T18:10:42.750Z,8.46
2023-12-02T18:13:09.544Z,8.49
2023-12-02T18:15:36.396Z,8.49
2023-12-02T18:18:03.858Z,8.50
2023-12-02T18:20:31.165Z,8.52
2023-12-02T18:23:00.887Z,8.56
2023-12-02T18:25:27.643Z,8.56
2023-12-02T18:27:54.395Z,8.55
2023-12-02T18:30:21.223Z,8.58
2023-12-02T18:32:48.080Z,8.65
2023-12-02T18:35:14.947Z,8.72
2023-12-02T18:37:42.489Z,8.74
2023-12-02T18:40:10.269Z,8.75
2023-12-02T18:42:37.397Z,8.76
2023-12-02T18:45:06.057Z,8.75
2023-12-02T18:47:32.899Z,8.76
2023-12-02T18:49:59.663Z,8.76
2023-12-02T18:52:26.367Z,8.78
2023-12-02T18:54:53.137Z,8.80
2023-12-02T18:57:19.927Z,8.83
2023-12-02T18:59:46.631Z,8.86
2023-12-02T19:02:13.424Z,8.89
2023-12-02T19:04:40.303Z,8.92
2023-12-02T19:07:09.411Z,8.95
2023-12-02T19:09:36.505Z,8.96
2023-12-02T19:12:03.666Z,8.96
2023-12-02T19:14:30.411Z,8.95
2023-12-02T19:16:57.128Z,8.93
2023-12-02T19:19:23.931Z,8.92
2023-12-02T19:21:50.734Z,8.91
2023-12-02T19:24:17.595Z,8.91
2023-12-02T19:26:44.393Z,8.91
2023-12-02T19:29:14.878Z,8.90
2023-12-02T19:31:44.870Z,8.89
2023-12-02T19:34:11.936Z,8.89
2023-12-02T19:36:38.934Z,8.89
2023-12-02T19:39:05.839Z,8.89
2023-12-02T19:41:33.539Z,8.89
2023-12-02T19:44:00.377Z,8.92
2023-12-02T19:46:27.145Z,8.94
2023-12-02T19:48:53.888Z,8.95
2023-12-02T19:51:20.656Z,8.94
2023-12-02T19:53:51.719Z,8.93
2023-12-02T19:56:19.409Z,8.90
2023-12-02T19:58:46.219Z,8.87
2023-12-02T20:01:13.344Z,8.85
2023-12-02T20:03:40.649Z,8.82
2023-12-02T20:06:07.946Z,8.78
2023-12-02T20:08:35.647Z,8.68
2023-12-02T20:11:02.551Z,8.56
2023-12-02T20:13:30.296Z,8.51
2023-12-02T20:15:58.002Z,8.47
2023-12-02T20:18:24.831Z,8.43
2023-12-02T20:20:51.964Z,8.38
2023-12-02T20:23:22.926Z,8.34
2023-12-02T20:25:50.544Z,8.30
2023-12-02T20:28:17.357Z,8.26
2023-12-02T20:30:44.257Z,8.21
2023-12-02T20:33:11.220Z,8.15
2023-12-02T20:35:38.068Z,8.05
2023-12-02T20:38:04.915Z,7.95
2023-12-02T20:40:31.608Z,7.91
2023-12-02T20:42:58.322Z,7.91
2023-12-02T20:45:25.061Z,7.89
2023-12-02T20:47:51.932Z,7.85
2023-12-02T20:50:18.698Z,7.82
2023-12-02T20:52:45.595Z,7.80
2023-12-02T20:55:12.420Z,7.76
2023-12-02T20:57:39.737Z,7.73
2023-12-02T21:00:07.525Z,7.71
2023-12-02T21:02:34.445Z,7.70
2023-12-02T21:05:01.216Z,7.67
2023-12-02T21:07:28.151Z,7.67
2023-12-02T21:09:58.313Z,7.67
2023-12-02T21:12:26.272Z,7.65
2023-12-02T21:14:54.978Z,7.62
2023-12-02T21:17:23.785Z,7.62
2023-12-02T21:19:50.909Z,7.63
2023-12-02T21:22:17.737Z,7.65
2023-12-02T21:24:47.896Z,7.64
2023-12-02T21:27:15.842Z,7.60
2023-12-02T21:29:45.056Z,7.55
2023-12-02T21:32:22.728Z,7.52
2023-12-02T21:34:59.782Z,7.48
2023-12-02T21:37:26.874Z,7.47
2023-12-02T21:39:57.733Z,7.42
2023-12-02T21:42:25.534Z,7.34
2023-12-02T21:44:53.694Z,7.23
2023-12-02T21:47:20.622Z,7.13
2023-12-02T21:49:48.898Z,7.04
2023-12-02T21:52:17.361Z,6.93
2023-12-02T21:54:46.037Z,6.86
2023-12-02T21:57:13.235Z,6.86
2023-12-02T21:59:41.504Z,6.85
2023-12-02T22:02:34.484Z,6.82
2023-12-02T22:05:01.509Z,6.73
2023-12-02T22:07:29.342Z,6.64
2023-12-02T22:10:02.075Z,6.63
2023-12-02T22:12:41.816Z,6.66
2023-12-02T22:15:17.038Z,6.68
2023-12-02T22:17:44.135Z,6.68
2023-12-02T22:20:19.528Z,6.71
2023-12-02T22:23:00.346Z,6.73
2023-12-02T22:25:30.262Z,6.77
2023-12-02T22:28:05.404Z,6.83
2023-12-02T22:30:43.850Z,6.88
2023-12-02T22:33:13.798Z,6.90
2023-12-02T22:35:43.438Z,6.89
2023-12-02T22:38:39.802Z,6.83
2023-12-02T22:41:10.849Z,6.80
2023-12-02T22:43:46.564Z,6.81
2023-12-02T22:46:15.045Z,6.80
2023-12-02T22:48:45.610Z,6.77
2023-12-02T22:51:18.929Z,6.74
2023-12-02T22:53:46.530Z,6.69
2023-12-02T22:56:13.563Z,6.67
2023-12-02T22:58:44.562Z,6.69
2023-12-02T23:01:17.067Z,6.75
2023-12-02T23:03:44.076Z,6.79
2023-12-02T23:06:11.436Z,6.84
2023-12-02T23:08:38.957Z,6.89
2023-12-02T23:11:05.902Z,6.93
2023-12-02T23:13:35.973Z,6.94
2023-12-02T23:16:25.647Z,6.82
2023-12-02T23:18:52.661Z,6.77
2023-12-02T23:21:19.718Z,6.77
2023-12-02T23:23:46.476Z,6.76
2023-12-02T23:26:15.279Z,6.78
2023-12-02T23:28:42.015Z,6.74
2023-12-02T23:31:08.637Z,6.74
2023-12-02T23:33:35.501Z,6.73
2023-12-02T23:36:04.299Z,6.76
2023-12-02T23:38:32.417Z,6.79
2023-12-02T23:40:59.198Z,6.83
2023-12-02T23:43:36.832Z,6.84
2023-12-02T23:46:04.413Z,6.85
2023-12-02T23:48:31.226Z,6.84
2023-12-02T23:50:57.982Z,6.84
2023-12-02T23:53:24.882Z,6.82
2023-12-02T23:55:52.607Z,6.80
2023-12-02T23:58:19.423Z,6.79
